Memphis, MO

8:42 AM CDT on August 05, 2015 (GMT -0500)
Wyacondah TWP | | Change Station
CLOSE
Current Station
Personal Weather Station
Location: Bloomfield, IA
Elevation: 886 ft
Nearby Weather Stations

Elev 886 ft 40.67 °N, 92.45 °W | Updated 0 second ago

Partly Cloudy
Partly Cloudy
70.7 °F
Feels Like 73 °F
N
4.5
Wind Variable Wind from East
Gusts 6.9 mph

Today
High -- | Low -- °F
--% Chance of Precip.
Yesterday
High -- | Low -- °F
Precip. -- in
6:09 AM 8:19 PM
Waning Gibbous, 67% visible
Pressure 30.02 in
Visibility 10.0 miles
Clouds Few 600 ft
Heat Index 73 °F
Dew Point 63 °F
Humidity 76%
Rainfall 0.00 in
Snow Depth Not available.
UV 2 out of 12
Pollen 6.80 out of 12
Air Quality Not available.
Flu Activity Not available.
SPECI KIRK 051340Z AUTO 14004KT 10SM FEW006 22/19 A3002 RMK AO2 T02170194

More Conditions Fewer Conditions

Pressure 30.02 in
Visibility 10.0 miles
Clouds Few 600 ft
Heat Index 73 °F
Dew Point 63 °F
Humidity 76%
Rainfall 0.00 in
Snow Depth Not available.
UV 2 out of 12
Pollen 6.80 out of 12
Air Quality Not available.
Flu Activity Not available.
SPECI KIRK 051340Z AUTO 14004KT 10SM FEW006 22/19 A3002 RMK AO2 T02170194

More Conditions Fewer Conditions

10-Day Weather Forecast

×

Almanac

Astronomy

Aug. 05, 2015 Rise Set
Actual Time
Civil Twilight
Nautical Twilight
Astronomical Twilight
Moon
Length of Visible Light
Length of Day
Tomorrow will be .
, % of the Moon is Illuminated

Today's Extremes

State Highs State Lows

Community

WunderPhotos

Upload Photos

1,844,185 photos uploaded!

WunderBlogs® & News

Nearby

Air Quality

  Air Quality AQ Index Pollutant
Not available.

Snow Depth

Station Depth Elevation

Earthquake Activity

City Distance Mag. Time & Date
Minimum magnitude displayed is 2.5.

Coastal Water Temperatures

Place Temperature

Stations

Nearby Weather Stations

Station Location Temp. Windchill Dew Point Humidity Wind Precip. Elev Updated Type